sensor_id;sensor_type;location;lat;lon;timestamp;temperature;humidity
22813;DHT22;11573;51.334;3.244;2023-04-23T00:00:41;9.90;99.90
22813;DHT22;11573;51.334;3.244;2023-04-23T00:03:10;9.90;99.90
22813;DHT22;11573;51.334;3.244;2023-04-23T00:05:42;9.90;99.90
22813;DHT22;11573;51.334;3.244;2023-04-23T00:08:10;10.00;99.90
22813;DHT22;11573;51.334;3.244;2023-04-23T00:10:38;9.90;99.90
22813;DHT22;11573;51.334;3.244;2023-04-23T00:13:05;9.90;99.90
22813;DHT22;11573;51.334;3.244;2023-04-23T00:15:32;9.90;99.90
22813;DHT22;11573;51.334;3.244;2023-04-23T00:17:59;9.80;99.90
22813;DHT22;11573;51.334;3.244;2023-04-23T00:20:26;9.80;99.90
22813;DHT22;11573;51.334;3.244;2023-04-23T00:22:54;9.80;99.90
22813;DHT22;11573;51.334;3.244;2023-04-23T00:25:21;9.70;99.90
22813;DHT22;11573;51.334;3.244;2023-04-23T00:27:48;9.70;99.90
22813;DHT22;11573;51.334;3.244;2023-04-23T00:30:15;9.60;99.90
22813;DHT22;11573;51.334;3.244;2023-04-23T00:32:44;9.60;99.90
22813;DHT22;11573;51.334;3.244;2023-04-23T00:35:11;9.60;99.90
22813;DHT22;11573;51.334;3.244;2023-04-23T00:37:38;9.60;99.90
22813;DHT22;11573;51.334;3.244;2023-04-23T00:40:06;9.50;99.90
22813;DHT22;11573;51.334;3.244;2023-04-23T00:42:33;9.50;99.90
22813;DHT22;11573;51.334;3.244;2023-04-23T00:45:01;9.60;99.90
22813;DHT22;11573;51.334;3.244;2023-04-23T00:47:28;9.60;99.90
22813;DHT22;11573;51.334;3.244;2023-04-23T00:49:57;9.60;99.90
22813;DHT22;11573;51.334;3.244;2023-04-23T00:52:25;9.80;99.90
22813;DHT22;11573;51.334;3.244;2023-04-23T00:54:52;9.90;99.90
22813;DHT22;11573;51.334;3.244;2023-04-23T00:57:19;10.00;99.90
22813;DHT22;11573;51.334;3.244;2023-04-23T00:59:48;10.10;99.90
22813;DHT22;11573;51.334;3.244;2023-04-23T01:02:16;10.20;99.90
22813;DHT22;11573;51.334;3.244;2023-04-23T01:04:44;10.30;99.90
22813;DHT22;11573;51.334;3.244;2023-04-23T01:07:11;10.40;99.90
22813;DHT22;11573;51.334;3.244;2023-04-23T01:09:39;10.40;99.90
22813;DHT22;11573;51.334;3.244;2023-04-23T01:12:06;10.40;99.90
22813;DHT22;11573;51.334;3.244;2023-04-23T01:14:33;10.50;99.90
22813;DHT22;11573;51.334;3.244;2023-04-23T01:17:01;10.60;99.90
22813;DHT22;11573;51.334;3.244;2023-04-23T01:19:28;10.70;99.90
22813;DHT22;11573;51.334;3.244;2023-04-23T01:21:56;10.70;99.90
22813;DHT22;11573;51.334;3.244;2023-04-23T01:24:28;10.80;99.90
22813;DHT22;11573;51.334;3.244;2023-04-23T01:26:57;10.90;99.90
22813;DHT22;11573;51.334;3.244;2023-04-23T01:29:25;10.90;99.90
22813;DHT22;11573;51.334;3.244;2023-04-23T01:31:52;10.90;99.90
22813;DHT22;11573;51.334;3.244;2023-04-23T01:34:19;10.90;99.90
22813;DHT22;11573;51.334;3.244;2023-04-23T01:36:48;10.80;99.90
22813;DHT22;11573;51.334;3.244;2023-04-23T01:39:15;10.80;99.90
22813;DHT22;11573;51.334;3.244;2023-04-23T01:41:43;10.80;99.90
22813;DHT22;11573;51.334;3.244;2023-04-23T01:44:11;10.70;99.90
22813;DHT22;11573;51.334;3.244;2023-04-23T01:46:38;10.60;99.90
22813;DHT22;11573;51.334;3.244;2023-04-23T01:49:05;10.50;99.90
22813;DHT22;11573;51.334;3.244;2023-04-23T01:51:32;10.50;99.90
22813;DHT22;11573;51.334;3.244;2023-04-23T01:53:59;10.40;99.90
22813;DHT22;11573;51.334;3.244;2023-04-23T01:56:27;10.40;99.90
22813;DHT22;11573;51.334;3.244;2023-04-23T01:58:56;10.40;99.90
22813;DHT22;11573;51.334;3.244;2023-04-23T02:01:23;10.20;99.90
22813;DHT22;11573;51.334;3.244;2023-04-23T02:03:50;10.10;99.90
22813;DHT22;11573;51.334;3.244;2023-04-23T02:06:17;10.00;99.90
22813;DHT22;11573;51.334;3.244;2023-04-23T02:08:44;10.00;99.90
22813;DHT22;11573;51.334;3.244;2023-04-23T02:11:12;10.00;99.90
22813;DHT22;11573;51.334;3.244;2023-04-23T02:13:39;10.10;99.90
22813;DHT22;11573;51.334;3.244;2023-04-23T02:16:06;10.20;99.90
22813;DHT22;11573;51.334;3.244;2023-04-23T02:18:33;10.20;99.90
22813;DHT22;11573;51.334;3.244;2023-04-23T02:21:00;10.20;99.90
22813;DHT22;11573;51.334;3.244;2023-04-23T02:23:29;10.20;99.90
22813;DHT22;11573;51.334;3.244;2023-04-23T02:25:56;10.10;99.90
22813;DHT22;11573;51.334;3.244;2023-04-23T02:28:23;10.10;99.90
22813;DHT22;11573;51.334;3.244;2023-04-23T02:30:50;9.90;99.90
22813;DHT22;11573;51.334;3.244;2023-04-23T02:33:17;9.90;99.90
22813;DHT22;11573;51.334;3.244;2023-04-23T02:35:45;9.80;99.90
22813;DHT22;11573;51.334;3.244;2023-04-23T02:38:12;9.80;99.90
22813;DHT22;11573;51.334;3.244;2023-04-23T02:40:39;9.80;99.90
22813;DHT22;11573;51.334;3.244;2023-04-23T02:43:06;9.70;99.90
22813;DHT22;11573;51.334;3.244;2023-04-23T02:45:33;9.70;99.90
22813;DHT22;11573;51.334;3.244;2023-04-23T02:48:00;9.70;99.90
22813;DHT22;11573;51.334;3.244;2023-04-23T02:50:27;9.70;99.90
22813;DHT22;11573;51.334;3.244;2023-04-23T02:52:54;9.70;99.90
22813;DHT22;11573;51.334;3.244;2023-04-23T02:55:22;9.60;99.90
22813;DHT22;11573;51.334;3.244;2023-04-23T02:57:51;9.60;99.90
22813;DHT22;11573;51.334;3.244;2023-04-23T03:00:18;9.60;99.90
22813;DHT22;11573;51.334;3.244;2023-04-23T03:02:46;9.50;99.90
22813;DHT22;11573;51.334;3.244;2023-04-23T03:05:13;9.50;99.90
22813;DHT22;11573;51.334;3.244;2023-04-23T03:07:40;9.50;99.90
22813;DHT22;11573;51.334;3.244;2023-04-23T03:10:08;9.50;99.90
22813;DHT22;11573;51.334;3.244;2023-04-23T03:12:35;9.50;99.90
22813;DHT22;11573;51.334;3.244;2023-04-23T03:15:02;9.40;99.90
22813;DHT22;11573;51.334;3.244;2023-04-23T03:17:32;9.40;99.90
22813;DHT22;11573;51.334;3.244;2023-04-23T03:19:59;9.40;99.90
22813;DHT22;11573;51.334;3.244;2023-04-23T03:22:26;9.40;99.90
22813;DHT22;11573;51.334;3.244;2023-04-23T03:24:54;9.30;99.90
22813;DHT22;11573;51.334;3.244;2023-04-23T03:27:21;9.30;99.90
22813;DHT22;11573;51.334;3.244;2023-04-23T03:29:48;9.30;99.90
22813;DHT22;11573;51.334;3.244;2023-04-23T03:32:15;9.30;99.90
22813;DHT22;11573;51.334;3.244;2023-04-23T03:34:42;9.30;99.90
22813;DHT22;11573;51.334;3.244;2023-04-23T03:37:10;9.30;99.90
22813;DHT22;11573;51.334;3.244;2023-04-23T03:39:38;9.30;99.90
22813;DHT22;11573;51.334;3.244;2023-04-23T03:42:06;9.30;99.90
22813;DHT22;11573;51.334;3.244;2023-04-23T03:44:34;9.30;99.90
22813;DHT22;11573;51.334;3.244;2023-04-23T03:47:01;9.30;99.90
22813;DHT22;11573;51.334;3.244;2023-04-23T03:49:29;9.30;99.90
22813;DHT22;11573;51.334;3.244;2023-04-23T03:51:56;9.30;99.90
22813;DHT22;11573;51.334;3.244;2023-04-23T03:54:24;9.20;99.90
22813;DHT22;11573;51.334;3.244;2023-04-23T03:57:14;9.20;99.90
22813;DHT22;11573;51.334;3.244;2023-04-23T03:59:58;9.10;99.90
22813;DHT22;11573;51.334;3.244;2023-04-23T04:02:25;9.00;99.90
22813;DHT22;11573;51.334;3.244;2023-04-23T04:04:52;9.00;99.90
22813;DHT22;11573;51.334;3.244;2023-04-23T04:07:23;9.00;99.90
22813;DHT22;11573;51.334;3.244;2023-04-23T04:09:50;9.10;99.90
22813;DHT22;11573;51.334;3.244;2023-04-23T04:12:17;9.00;99.90
22813;DHT22;11573;51.334;3.244;2023-04-23T04:14:44;9.00;99.90
22813;DHT22;11573;51.334;3.244;2023-04-23T04:17:11;9.00;99.90
22813;DHT22;11573;51.334;3.244;2023-04-23T04:19:41;8.90;99.90
22813;DHT22;11573;51.334;3.244;2023-04-23T04:22:08;9.00;99.90
22813;DHT22;11573;51.334;3.244;2023-04-23T04:24:35;8.90;99.90
22813;DHT22;11573;51.334;3.244;2023-04-23T04:27:03;8.90;99.90
22813;DHT22;11573;51.334;3.244;2023-04-23T04:29:31;9.00;99.90
22813;DHT22;11573;51.334;3.244;2023-04-23T04:31:59;9.00;99.90
22813;DHT22;11573;51.334;3.244;2023-04-23T04:34:27;9.00;99.90
22813;DHT22;11573;51.334;3.244;2023-04-23T04:36:54;9.00;99.90
22813;DHT22;11573;51.334;3.244;2023-04-23T04:39:21;9.00;99.90
22813;DHT22;11573;51.334;3.244;2023-04-23T04:41:48;9.10;99.90
22813;DHT22;11573;51.334;3.244;2023-04-23T04:44:15;9.20;99.90
22813;DHT22;11573;51.334;3.244;2023-04-23T04:46:43;9.20;99.90
22813;DHT22;11573;51.334;3.244;2023-04-23T04:49:11;9.20;99.90
22813;DHT22;11573;51.334;3.244;2023-04-23T04:51:39;9.30;99.90
22813;DHT22;11573;51.334;3.244;2023-04-23T04:54:07;9.40;99.90
22813;DHT22;11573;51.334;3.244;2023-04-23T04:56:34;9.40;99.90
22813;DHT22;11573;51.334;3.244;2023-04-23T04:59:02;9.60;99.90
22813;DHT22;11573;51.334;3.244;2023-04-23T05:01:29;9.90;99.90
22813;DHT22;11573;51.334;3.244;2023-04-23T05:03:57;10.10;99.90
22813;DHT22;11573;51.334;3.244;2023-04-23T05:06:25;10.30;99.90
22813;DHT22;11573;51.334;3.244;2023-04-23T05:08:52;10.40;99.90
22813;DHT22;11573;51.334;3.244;2023-04-23T05:11:19;10.40;99.90
22813;DHT22;11573;51.334;3.244;2023-04-23T05:13:47;10.50;99.90
22813;DHT22;11573;51.334;3.244;2023-04-23T05:16:14;10.60;99.90
22813;DHT22;11573;51.334;3.244;2023-04-23T05:18:41;11.00;99.90
22813;DHT22;11573;51.334;3.244;2023-04-23T05:21:08;11.50;99.90
22813;DHT22;11573;51.334;3.244;2023-04-23T05:23:36;12.10;99.90
22813;DHT22;11573;51.334;3.244;2023-04-23T05:26:03;12.50;99.90
22813;DHT22;11573;51.334;3.244;2023-04-23T05:28:30;12.90;99.90
22813;DHT22;11573;51.334;3.244;2023-04-23T05:30:57;13.20;28.60
22813;DHT22;11573;51.334;3.244;2023-04-23T05:33:25;12.90;99.90
22813;DHT22;11573;51.334;3.244;2023-04-23T05:35:58;12.60;99.90
22813;DHT22;11573;51.334;3.244;2023-04-23T05:38:25;12.30;99.90
22813;DHT22;11573;51.334;3.244;2023-04-23T05:40:52;12.20;99.90
22813;DHT22;11573;51.334;3.244;2023-04-23T05:43:19;12.10;39.10
22813;DHT22;11573;51.334;3.244;2023-04-23T05:45:46;12.10;41.10
22813;DHT22;11573;51.334;3.244;2023-04-23T05:48:13;12.10;47.20
22813;DHT22;11573;51.334;3.244;2023-04-23T05:50:40;12.00;49.00
22813;DHT22;11573;51.334;3.244;2023-04-23T05:53:08;12.20;50.30
22813;DHT22;11573;51.334;3.244;2023-04-23T05:55:35;12.40;48.70
22813;DHT22;11573;51.334;3.244;2023-04-23T05:58:02;12.30;49.20
22813;DHT22;11573;51.334;3.244;2023-04-23T06:00:29;12.30;51.40
22813;DHT22;11573;51.334;3.244;2023-04-23T06:02:56;12.30;52.70
22813;DHT22;11573;51.334;3.244;2023-04-23T06:05:23;12.40;54.50
22813;DHT22;11573;51.334;3.244;2023-04-23T06:07:50;12.40;55.90
22813;DHT22;11573;51.334;3.244;2023-04-23T06:10:17;12.50;49.40
22813;DHT22;11573;51.334;3.244;2023-04-23T06:12:44;12.60;49.80
22813;DHT22;11573;51.334;3.244;2023-04-23T06:15:11;12.50;49.10
22813;DHT22;11573;51.334;3.244;2023-04-23T06:17:38;12.40;51.50
22813;DHT22;11573;51.334;3.244;2023-04-23T06:20:06;12.40;52.70
22813;DHT22;11573;51.334;3.244;2023-04-23T06:22:34;12.40;55.30
22813;DHT22;11573;51.334;3.244;2023-04-23T06:25:02;12.40;56.20
22813;DHT22;11573;51.334;3.244;2023-04-23T06:27:29;12.30;54.40
22813;DHT22;11573;51.334;3.244;2023-04-23T06:30:01;12.30;53.30
22813;DHT22;11573;51.334;3.244;2023-04-23T06:32:28;12.30;52.20
22813;DHT22;11573;51.334;3.244;2023-04-23T06:34:55;12.40;51.90
22813;DHT22;11573;51.334;3.244;2023-04-23T06:37:27;12.60;53.30
22813;DHT22;11573;51.334;3.244;2023-04-23T06:39:57;12.60;55.40
22813;DHT22;11573;51.334;3.244;2023-04-23T06:42:25;12.80;55.30
22813;DHT22;11573;51.334;3.244;2023-04-23T06:45:27;12.90;53.60
22813;DHT22;11573;51.334;3.244;2023-04-23T06:47:57;13.10;53.90
22813;DHT22;11573;51.334;3.244;2023-04-23T06:50:24;13.30;54.00
22813;DHT22;11573;51.334;3.244;2023-04-23T06:52:52;13.30;68.70
22813;DHT22;11573;51.334;3.244;2023-04-23T06:55:19;13.30;99.90
22813;DHT22;11573;51.334;3.244;2023-04-23T06:57:47;13.30;99.90
22813;DHT22;11573;51.334;3.244;2023-04-23T07:00:14;13.40;99.90
22813;DHT22;11573;51.334;3.244;2023-04-23T07:02:42;13.40;99.90
22813;DHT22;11573;51.334;3.244;2023-04-23T07:05:09;13.50;99.90
22813;DHT22;11573;51.334;3.244;2023-04-23T07:07:37;13.60;99.90
22813;DHT22;11573;51.334;3.244;2023-04-23T07:10:04;13.50;99.90
22813;DHT22;11573;51.334;3.244;2023-04-23T07:12:32;13.60;99.90
22813;DHT22;11573;51.334;3.244;2023-04-23T07:14:59;13.80;99.90
22813;DHT22;11573;51.334;3.244;2023-04-23T07:17:26;13.90;99.90
22813;DHT22;11573;51.334;3.244;2023-04-23T07:19:53;13.90;99.90
22813;DHT22;11573;51.334;3.244;2023-04-23T07:22:20;13.80;99.90
22813;DHT22;11573;51.334;3.244;2023-04-23T07:24:47;13.60;99.90
22813;DHT22;11573;51.334;3.244;2023-04-23T07:27:14;13.40;99.90
22813;DHT22;11573;51.334;3.244;2023-04-23T07:29:41;13.30;99.90
22813;DHT22;11573;51.334;3.244;2023-04-23T07:32:08;13.30;99.90
22813;DHT22;11573;51.334;3.244;2023-04-23T07:34:35;13.50;99.90
22813;DHT22;11573;51.334;3.244;2023-04-23T07:37:03;13.50;99.90
22813;DHT22;11573;51.334;3.244;2023-04-23T07:39:31;13.80;99.90
22813;DHT22;11573;51.334;3.244;2023-04-23T07:41:59;14.00;99.90
22813;DHT22;11573;51.334;3.244;2023-04-23T07:44:26;13.80;99.90
22813;DHT22;11573;51.334;3.244;2023-04-23T07:46:53;14.00;99.90
22813;DHT22;11573;51.334;3.244;2023-04-23T07:49:20;14.10;99.90
22813;DHT22;11573;51.334;3.244;2023-04-23T07:51:47;14.10;99.90
22813;DHT22;11573;51.334;3.244;2023-04-23T07:54:14;14.30;99.90
22813;DHT22;11573;51.334;3.244;2023-04-23T07:56:41;14.40;99.90
22813;DHT22;11573;51.334;3.244;2023-04-23T07:59:09;14.50;99.90
22813;DHT22;11573;51.334;3.244;2023-04-23T08:01:36;14.60;99.90
22813;DHT22;11573;51.334;3.244;2023-04-23T08:04:03;14.70;99.90
22813;DHT22;11573;51.334;3.244;2023-04-23T08:06:31;15.10;99.90
22813;DHT22;11573;51.334;3.244;2023-04-23T08:09:01;15.20;99.90
22813;DHT22;11573;51.334;3.244;2023-04-23T08:11:32;15.20;99.90
22813;DHT22;11573;51.334;3.244;2023-04-23T08:13:59;15.20;99.90
22813;DHT22;11573;51.334;3.244;2023-04-23T08:16:27;15.40;99.90
22813;DHT22;11573;51.334;3.244;2023-04-23T08:18:56;15.30;99.90
22813;DHT22;11573;51.334;3.244;2023-04-23T08:21:32;15.20;99.90
22813;DHT22;11573;51.334;3.244;2023-04-23T08:24:00;15.50;99.90
22813;DHT22;11573;51.334;3.244;2023-04-23T08:26:29;15.70;99.90
22813;DHT22;11573;51.334;3.244;2023-04-23T08:28:56;16.00;99.90
22813;DHT22;11573;51.334;3.244;2023-04-23T08:31:23;16.00;99.90
22813;DHT22;11573;51.334;3.244;2023-04-23T08:33:53;16.20;99.90
22813;DHT22;11573;51.334;3.244;2023-04-23T08:36:20;16.40;99.90
22813;DHT22;11573;51.334;3.244;2023-04-23T08:38:47;16.50;99.90
22813;DHT22;11573;51.334;3.244;2023-04-23T08:41:17;16.70;99.90
22813;DHT22;11573;51.334;3.244;2023-04-23T08:44:03;16.80;99.90
22813;DHT22;11573;51.334;3.244;2023-04-23T08:46:35;17.00;99.90
22813;DHT22;11573;51.334;3.244;2023-04-23T08:49:04;16.90;99.90
22813;DHT22;11573;51.334;3.244;2023-04-23T08:51:37;16.90;99.90
22813;DHT22;11573;51.334;3.244;2023-04-23T08:54:13;17.00;99.90
22813;DHT22;11573;51.334;3.244;2023-04-23T08:56:41;16.80;99.90
22813;DHT22;11573;51.334;3.244;2023-04-23T08:59:08;16.70;99.90
22813;DHT22;11573;51.334;3.244;2023-04-23T09:01:35;16.50;99.90
22813;DHT22;11573;51.334;3.244;2023-04-23T09:04:03;16.40;99.90
22813;DHT22;11573;51.334;3.244;2023-04-23T09:06:31;16.40;99.90
22813;DHT22;11573;51.334;3.244;2023-04-23T09:08:58;16.20;99.90
22813;DHT22;11573;51.334;3.244;2023-04-23T09:11:26;15.90;99.90
22813;DHT22;11573;51.334;3.244;2023-04-23T09:13:55;15.80;99.90
22813;DHT22;11573;51.334;3.244;2023-04-23T09:16:23;15.80;99.90
22813;DHT22;11573;51.334;3.244;2023-04-23T09:18:50;15.70;99.90
22813;DHT22;11573;51.334;3.244;2023-04-23T09:21:18;15.80;99.90
22813;DHT22;11573;51.334;3.244;2023-04-23T09:23:50;15.80;99.90
22813;DHT22;11573;51.334;3.244;2023-04-23T09:26:21;15.90;99.90
22813;DHT22;11573;51.334;3.244;2023-04-23T09:28:49;15.90;99.90
22813;DHT22;11573;51.334;3.244;2023-04-23T09:31:20;15.90;99.90
22813;DHT22;11573;51.334;3.244;2023-04-23T09:33:51;15.70;99.90
22813;DHT22;11573;51.334;3.244;2023-04-23T09:36:20;15.40;99.90
22813;DHT22;11573;51.334;3.244;2023-04-23T09:38:49;15.30;99.90
22813;DHT22;11573;51.334;3.244;2023-04-23T09:41:26;15.30;99.90
22813;DHT22;11573;51.334;3.244;2023-04-23T09:43:55;15.60;99.90
22813;DHT22;11573;51.334;3.244;2023-04-23T09:46:36;15.80;99.90
22813;DHT22;11573;51.334;3.244;2023-04-23T09:49:04;16.00;99.90
22813;DHT22;11573;51.334;3.244;2023-04-23T09:51:40;16.10;99.90
22813;DHT22;11573;51.334;3.244;2023-04-23T09:54:16;15.80;99.90
22813;DHT22;11573;51.334;3.244;2023-04-23T09:56:48;15.30;99.90
22813;DHT22;11573;51.334;3.244;2023-04-23T09:59:24;15.20;99.90
22813;DHT22;11573;51.334;3.244;2023-04-23T10:02:11;15.10;99.90
22813;DHT22;11573;51.334;3.244;2023-04-23T10:04:39;15.30;99.90
22813;DHT22;11573;51.334;3.244;2023-04-23T10:07:06;15.50;99.90
22813;DHT22;11573;51.334;3.244;2023-04-23T10:09:46;15.60;99.90
22813;DHT22;11573;51.334;3.244;2023-04-23T10:12:14;16.00;99.90
22813;DHT22;11573;51.334;3.244;2023-04-23T10:14:45;16.10;99.90
22813;DHT22;11573;51.334;3.244;2023-04-23T10:17:15;16.40;99.90
22813;DHT22;11573;51.334;3.244;2023-04-23T10:19:43;16.50;99.90
22813;DHT22;11573;51.334;3.244;2023-04-23T10:22:12;16.30;99.90
22813;DHT22;11573;51.334;3.244;2023-04-23T10:24:44;16.30;99.90
22813;DHT22;11573;51.334;3.244;2023-04-23T10:27:15;16.10;99.90
22813;DHT22;11573;51.334;3.244;2023-04-23T10:30:04;15.90;99.90
22813;DHT22;11573;51.334;3.244;2023-04-23T10:32:33;15.80;99.90
22813;DHT22;11573;51.334;3.244;2023-04-23T10:35:01;15.60;99.90
22813;DHT22;11573;51.334;3.244;2023-04-23T10:37:29;15.40;99.90
22813;DHT22;11573;51.334;3.244;2023-04-23T10:40:04;15.50;99.90
22813;DHT22;11573;51.334;3.244;2023-04-23T10:42:34;15.70;99.90
22813;DHT22;11573;51.334;3.244;2023-04-23T10:45:01;16.40;99.90
22813;DHT22;11573;51.334;3.244;2023-04-23T10:47:49;17.00;99.90
22813;DHT22;11573;51.334;3.244;2023-04-23T10:50:29;16.80;99.90
22813;DHT22;11573;51.334;3.244;2023-04-23T10:52:56;16.90;99.90
22813;DHT22;11573;51.334;3.244;2023-04-23T10:55:29;17.10;99.90
22813;DHT22;11573;51.334;3.244;2023-04-23T10:58:01;17.50;99.90
22813;DHT22;11573;51.334;3.244;2023-04-23T11:00:45;17.80;99.90
22813;DHT22;11573;51.334;3.244;2023-04-23T11:03:36;17.80;99.90
22813;DHT22;11573;51.334;3.244;2023-04-23T11:06:49;17.10;99.90
22813;DHT22;11573;51.334;3.244;2023-04-23T11:09:47;16.60;99.90
22813;DHT22;11573;51.334;3.244;2023-04-23T11:14:53;16.90;99.90
22813;DHT22;11573;51.334;3.244;2023-04-23T11:17:23;17.30;99.90
22813;DHT22;11573;51.334;3.244;2023-04-23T11:20:10;17.20;99.90
22813;DHT22;11573;51.334;3.244;2023-04-23T11:22:42;16.90;99.90
22813;DHT22;11573;51.334;3.244;2023-04-23T11:25:18;16.70;99.90
22813;DHT22;11573;51.334;3.244;2023-04-23T11:27:49;16.50;99.90
22813;DHT22;11573;51.334;3.244;2023-04-23T11:30:22;16.60;99.90
22813;DHT22;11573;51.334;3.244;2023-04-23T11:32:51;16.80;99.90
22813;DHT22;11573;51.334;3.244;2023-04-23T11:35:23;16.60;99.90
22813;DHT22;11573;51.334;3.244;2023-04-23T11:37:54;16.70;99.90
22813;DHT22;11573;51.334;3.244;2023-04-23T11:40:22;16.90;99.90
22813;DHT22;11573;51.334;3.244;2023-04-23T11:42:51;16.70;99.90
22813;DHT22;11573;51.334;3.244;2023-04-23T11:45:25;16.00;99.90
22813;DHT22;11573;51.334;3.244;2023-04-23T11:47:54;15.70;99.90
22813;DHT22;11573;51.334;3.244;2023-04-23T11:50:29;15.40;99.90
22813;DHT22;11573;51.334;3.244;2023-04-23T11:53:09;15.30;99.90
22813;DHT22;11573;51.334;3.244;2023-04-23T11:55:36;15.60;99.90
22813;DHT22;11573;51.334;3.244;2023-04-23T11:58:03;15.90;99.90
22813;DHT22;11573;51.334;3.244;2023-04-23T12:00:31;16.40;99.90
22813;DHT22;11573;51.334;3.244;2023-04-23T12:03:02;16.60;99.90
22813;DHT22;11573;51.334;3.244;2023-04-23T12:05:34;16.60;99.90
22813;DHT22;11573;51.334;3.244;2023-04-23T12:08:13;16.50;99.90
22813;DHT22;11573;51.334;3.244;2023-04-23T12:10:51;16.40;99.90
22813;DHT22;11573;51.334;3.244;2023-04-23T12:13:28;16.40;99.90
22813;DHT22;11573;51.334;3.244;2023-04-23T12:16:04;16.40;99.90
22813;DHT22;11573;51.334;3.244;2023-04-23T12:18:39;16.30;99.90
22813;DHT22;11573;51.334;3.244;2023-04-23T12:21:09;16.00;99.90
22813;DHT22;11573;51.334;3.244;2023-04-23T12:23:38;15.60;99.90
22813;DHT22;11573;51.334;3.244;2023-04-23T12:26:10;15.70;99.90
22813;DHT22;11573;51.334;3.244;2023-04-23T12:31:28;16.20;99.90
22813;DHT22;11573;51.334;3.244;2023-04-23T12:36:29;16.70;99.90
22813;DHT22;11573;51.334;3.244;2023-04-23T12:41:51;16.60;99.90
22813;DHT22;11573;51.334;3.244;2023-04-23T12:44:19;16.30;99.90
22813;DHT22;11573;51.334;3.244;2023-04-23T12:47:08;16.20;99.90
22813;DHT22;11573;51.334;3.244;2023-04-23T12:49:41;16.20;99.90
22813;DHT22;11573;51.334;3.244;2023-04-23T12:52:09;16.50;99.90
22813;DHT22;11573;51.334;3.244;2023-04-23T12:54:39;16.50;99.90
22813;DHT22;11573;51.334;3.244;2023-04-23T12:57:09;16.60;99.90
22813;DHT22;11573;51.334;3.244;2023-04-23T12:59:37;16.50;99.90
22813;DHT22;11573;51.334;3.244;2023-04-23T13:02:04;16.60;99.90
22813;DHT22;11573;51.334;3.244;2023-04-23T13:04:33;16.50;99.90
22813;DHT22;11573;51.334;3.244;2023-04-23T13:07:01;16.50;99.90
22813;DHT22;11573;51.334;3.244;2023-04-23T13:09:28;16.50;99.90
22813;DHT22;11573;51.334;3.244;2023-04-23T13:11:56;16.20;99.90
22813;DHT22;11573;51.334;3.244;2023-04-23T13:14:23;16.10;99.90
22813;DHT22;11573;51.334;3.244;2023-04-23T13:16:50;16.20;99.90
22813;DHT22;11573;51.334;3.244;2023-04-23T13:19:18;16.20;99.90
22813;DHT22;11573;51.334;3.244;2023-04-23T13:21:45;16.40;99.90
22813;DHT22;11573;51.334;3.244;2023-04-23T13:24:12;16.60;99.90
22813;DHT22;11573;51.334;3.244;2023-04-23T13:26:39;16.60;99.90
22813;DHT22;11573;51.334;3.244;2023-04-23T13:29:06;16.70;99.90
22813;DHT22;11573;51.334;3.244;2023-04-23T13:31:33;16.70;99.90
22813;DHT22;11573;51.334;3.244;2023-04-23T13:34:00;16.90;99.90
22813;DHT22;11573;51.334;3.244;2023-04-23T13:36:28;17.00;99.90
22813;DHT22;11573;51.334;3.244;2023-04-23T13:38:56;17.10;99.90
22813;DHT22;11573;51.334;3.244;2023-04-23T13:41:22;16.90;99.90
22813;DHT22;11573;51.334;3.244;2023-04-23T13:43:49;16.90;99.90
22813;DHT22;11573;51.334;3.244;2023-04-23T13:46:16;17.10;99.90
22813;DHT22;11573;51.334;3.244;2023-04-23T13:48:45;16.90;99.90
22813;DHT22;11573;51.334;3.244;2023-04-23T13:51:12;17.00;99.90
22813;DHT22;11573;51.334;3.244;2023-04-23T13:53:59;16.90;99.90
22813;DHT22;11573;51.334;3.244;2023-04-23T13:56:26;16.90;99.90
22813;DHT22;11573;51.334;3.244;2023-04-23T13:58:53;16.80;99.90
22813;DHT22;11573;51.334;3.244;2023-04-23T14:01:30;16.60;99.90
22813;DHT22;11573;51.334;3.244;2023-04-23T14:03:58;16.50;99.90
22813;DHT22;11573;51.334;3.244;2023-04-23T14:06:26;16.40;99.90
22813;DHT22;11573;51.334;3.244;2023-04-23T14:08:53;16.30;99.90
22813;DHT22;11573;51.334;3.244;2023-04-23T14:11:20;16.10;99.90
22813;DHT22;11573;51.334;3.244;2023-04-23T14:13:48;16.00;99.90
22813;DHT22;11573;51.334;3.244;2023-04-23T14:16:15;16.00;99.90
22813;DHT22;11573;51.334;3.244;2023-04-23T14:18:43;16.00;99.90
22813;DHT22;11573;51.334;3.244;2023-04-23T14:21:11;15.90;99.90
22813;DHT22;11573;51.334;3.244;2023-04-23T14:23:50;15.90;99.90
22813;DHT22;11573;51.334;3.244;2023-04-23T14:26:36;16.10;99.90
22813;DHT22;11573;51.334;3.244;2023-04-23T14:29:23;16.20;99.90
22813;DHT22;11573;51.334;3.244;2023-04-23T14:31:55;16.20;99.90
22813;DHT22;11573;51.334;3.244;2023-04-23T14:34:22;16.00;99.90
22813;DHT22;11573;51.334;3.244;2023-04-23T14:36:49;15.90;99.90
22813;DHT22;11573;51.334;3.244;2023-04-23T14:39:21;15.80;99.90
22813;DHT22;11573;51.334;3.244;2023-04-23T14:41:48;15.70;99.90
22813;DHT22;11573;51.334;3.244;2023-04-23T14:44:15;15.70;99.90
22813;DHT22;11573;51.334;3.244;2023-04-23T14:46:42;15.70;99.90
22813;DHT22;11573;51.334;3.244;2023-04-23T14:49:10;15.60;99.90
22813;DHT22;11573;51.334;3.244;2023-04-23T14:51:37;15.60;99.90
22813;DHT22;11573;51.334;3.244;2023-04-23T14:54:04;15.60;99.90
22813;DHT22;11573;51.334;3.244;2023-04-23T14:56:31;15.60;99.90
22813;DHT22;11573;51.334;3.244;2023-04-23T14:58:58;15.70;99.90
22813;DHT22;11573;51.334;3.244;2023-04-23T15:01:25;15.80;99.90
22813;DHT22;11573;51.334;3.244;2023-04-23T15:03:52;15.80;99.90
22813;DHT22;11573;51.334;3.244;2023-04-23T15:06:19;15.80;99.90
22813;DHT22;11573;51.334;3.244;2023-04-23T15:08:47;15.60;99.90
22813;DHT22;11573;51.334;3.244;2023-04-23T15:11:14;15.50;99.90
22813;DHT22;11573;51.334;3.244;2023-04-23T15:14:01;15.40;99.90
22813;DHT22;11573;51.334;3.244;2023-04-23T15:16:33;15.40;99.90
22813;DHT22;11573;51.334;3.244;2023-04-23T15:19:15;15.40;99.90
22813;DHT22;11573;51.334;3.244;2023-04-23T15:21:46;15.40;99.90
22813;DHT22;11573;51.334;3.244;2023-04-23T15:24:14;15.40;99.90
22813;DHT22;11573;51.334;3.244;2023-04-23T15:26:42;15.40;99.90
22813;DHT22;11573;51.334;3.244;2023-04-23T15:29:11;15.40;99.90
22813;DHT22;11573;51.334;3.244;2023-04-23T15:31:39;15.30;99.90
22813;DHT22;11573;51.334;3.244;2023-04-23T15:34:07;15.20;99.90
22813;DHT22;11573;51.334;3.244;2023-04-23T15:36:35;15.10;99.90
22813;DHT22;11573;51.334;3.244;2023-04-23T15:39:04;15.10;99.90
22813;DHT22;11573;51.334;3.244;2023-04-23T15:41:34;15.00;99.90
22813;DHT22;11573;51.334;3.244;2023-04-23T15:44:09;15.10;99.90
22813;DHT22;11573;51.334;3.244;2023-04-23T15:46:37;15.10;99.90
22813;DHT22;11573;51.334;3.244;2023-04-23T15:49:04;15.00;99.90
22813;DHT22;11573;51.334;3.244;2023-04-23T15:51:31;15.00;99.90
22813;DHT22;11573;51.334;3.244;2023-04-23T15:53:58;15.00;99.90
22813;DHT22;11573;51.334;3.244;2023-04-23T15:56:28;15.00;99.90
22813;DHT22;11573;51.334;3.244;2023-04-23T15:58:54;14.90;99.90